Time;durP1;ratioP1;P1;durP2;ratioP2;P2;SDS_P1;SDS_P2;PMS_P1;PMS_P2;Temp;Humidity;BMP_temperature;BMP_pressure;BME280_temperature;BME280_humidity;BME280_pressure;Samples;Min_cycle;Max_cycle;Signal;HPM_P1;HPM_P2
2021/09/18 00:01:24;;;;;;;6.63;3.20;;;12.20;99.90;;;;;;5099055;28;20020;-87
2021/09/18 00:03:49;;;;;;;10.02;3.38;;;15.10;99.90;;;;;;5098982;28;20027;-87
2021/09/18 00:06:15;;;;;;;4.72;2.75;;;15.30;99.90;;;;;;5099122;28;20058;-87
2021/09/18 00:08:41;;;;;;;3.83;2.38;;;14.10;99.90;;;;;;5099835;28;20019;-88
2021/09/18 00:11:06;;;;;;;5.90;1.70;;;14.60;99.90;;;;;;5116854;28;20396;-87
2021/09/18 00:13:32;;;;;;;3.05;1.70;;;13.70;99.90;;;;;;5098788;28;20115;-87
2021/09/18 00:15:59;;;;;;;3.53;1.42;;;12.70;99.90;;;;;;5117486;28;20028;-88
2021/09/18 00:18:25;;;;;;;5.22;1.80;;;11.80;99.90;;;;;;5117241;28;20047;-86
2021/09/18 00:20:51;;;;;;;3.72;2.35;;;11.70;99.90;;;;;;5098448;28;20084;-87
2021/09/18 00:23:16;;;;;;;2.83;1.27;;;12.40;99.90;;;;;;5098961;28;20107;-89
2021/09/18 00:25:42;;;;;;;3.38;1.80;;;12.20;99.90;;;;;;5117047;28;20442;-89
2021/09/18 00:28:08;;;;;;;3.25;1.55;;;11.60;99.90;;;;;;5098811;28;20019;-87
2021/09/18 00:30:33;;;;;;;4.45;1.52;;;12.20;99.90;;;;;;5116845;28;20023;-87
2021/09/18 00:33:01;;;;;;;2.70;1.25;;;11.90;99.90;;;;;;5099396;28;20023;-87
2021/09/18 00:35:27;;;;;;;5.57;1.97;;;11.60;99.90;;;;;;5116652;28;20031;-88
2021/09/18 00:37:53;;;;;;;2.90;1.23;;;12.30;99.90;;;;;;5099649;28;20266;-87
2021/09/18 00:40:19;;;;;;;4.25;2.00;;;12.50;99.90;;;;;;5098447;28;20028;-89
2021/09/18 00:42:44;;;;;;;5.50;1.60;;;12.40;99.90;;;;;;5097908;28;20071;-89
2021/09/18 00:45:10;;;;;;;3.15;1.65;;;13.60;99.90;;;;;;5098070;28;20062;-89
2021/09/18 00:47:36;;;;;;;4.70;2.45;;;12.20;99.90;;;;;;5098070;28;20023;-89
2021/09/18 00:50:03;;;;;;;5.93;2.88;;;12.20;99.90;;;;;;5098378;28;20016;-88
2021/09/18 00:52:29;;;;;;;7.03;2.58;;;12.10;99.90;;;;;;5098621;28;20016;-87
2021/09/18 00:54:55;;;;;;;6.13;2.67;;;12.20;99.90;;;;;;5098250;28;20475;-87
2021/09/18 00:57:20;;;;;;;4.60;2.30;;;12.30;99.90;;;;;;5098946;28;20012;-87
2021/09/18 00:59:46;;;;;;;6.35;1.83;;;14.00;99.90;;;;;;5097787;28;20023;-87
2021/09/18 01:02:12;;;;;;;7.63;2.25;;;14.10;99.90;;;;;;5116346;28;20012;-89
2021/09/18 01:04:39;;;;;;;4.57;2.40;;;15.40;99.90;;;;;;5096363;28;20054;-89
2021/09/18 01:07:06;;;;;;;7.18;1.98;;;11.80;99.90;;;;;;5097503;28;20022;-89
2021/09/18 01:09:32;;;;;;;3.42;2.10;;;11.40;99.90;;;;;;5115891;28;20068;-89
2021/09/18 01:11:59;;;;;;;4.93;2.53;;;13.60;99.90;;;;;;5097469;28;20465;-88
2021/09/18 01:14:25;;;;;;;7.20;3.10;;;12.10;99.90;;;;;;5097555;28;20030;-89
2021/09/18 01:16:51;;;;;;;3.75;2.22;;;13.80;99.90;;;;;;5097281;28;20024;-89
2021/09/18 01:19:17;;;;;;;6.85;2.22;;;14.60;99.90;;;;;;5098841;28;20055;-89
2021/09/18 01:21:48;;;;;;;4.82;2.20;;;13.00;99.90;;;;;;5115787;28;20152;-89
2021/09/18 01:24:13;;;;;;;6.97;2.63;;;11.90;99.90;;;;;;5097049;28;20032;-89
2021/09/18 01:26:39;;;;;;;4.63;2.53;;;13.20;99.90;;;;;;5097262;28;20500;-89
2021/09/18 01:29:06;;;;;;;4.85;2.40;;;11.80;99.90;;;;;;5097271;28;20102;-89
2021/09/18 01:31:44;;;;;;;5.88;1.65;;;11.80;99.90;;;;;;5115145;28;20023;-89
2021/09/18 01:34:15;;;;;;;4.28;1.65;;;14.20;99.90;;;;;;5097061;28;20031;-90
2021/09/18 01:36:40;;;;;;;4.97;1.88;;;13.00;99.90;;;;;;5097312;28;20020;-89
2021/09/18 01:39:10;;;;;;;3.60;1.98;;;11.80;99.90;;;;;;5097727;28;20030;-89
2021/09/18 01:41:36;;;;;;;2.75;1.67;;;11.80;99.90;;;;;;5115279;28;20026;-89
2021/09/18 01:44:03;;;;;;;3.47;1.77;;;14.20;99.90;;;;;;5115567;28;20030;-89
2021/09/18 01:46:29;;;;;;;5.18;2.35;;;12.00;99.90;;;;;;5115146;28;20099;-89
2021/09/18 01:48:55;;;;;;;4.50;1.98;;;11.60;99.90;;;;;;5097314;28;20401;-88
2021/09/18 01:51:21;;;;;;;3.50;1.50;;;14.40;99.90;;;;;;5096957;28;20023;-88
2021/09/18 01:53:47;;;;;;;6.32;2.35;;;11.50;99.90;;;;;;5096947;28;20015;-88
2021/09/18 01:56:12;;;;;;;2.65;1.67;;;12.70;99.90;;;;;;5097285;28;20087;-88
2021/09/18 01:58:38;;;;;;;4.07;2.42;;;12.40;99.90;;;;;;5097136;28;20028;-89
2021/09/18 02:01:04;;;;;;;3.95;1.70;;;11.50;99.90;;;;;;5096913;28;20077;-88
2021/09/18 02:03:33;;;;;;;3.92;1.77;;;11.50;99.90;;;;;;5096419;28;20022;-88
2021/09/18 02:05:59;;;;;;;2.95;1.58;;;13.90;99.90;;;;;;5097620;28;20015;-89
2021/09/18 02:08:25;;;;;;;4.85;1.85;;;11.50;99.90;;;;;;5096815;28;20031;-88
2021/09/18 02:10:52;;;;;;;4.38;1.50;;;11.40;99.90;;;;;;5096803;28;20080;-89
2021/09/18 02:13:18;;;;;;;4.35;1.90;;;12.10;99.90;;;;;;5097594;28;20031;-89
2021/09/18 02:15:44;;;;;;;3.05;1.67;;;13.10;99.90;;;;;;5097733;28;20032;-89
2021/09/18 02:18:10;;;;;;;3.53;1.90;;;11.20;99.90;;;;;;5097971;28;20107;-89
2021/09/18 02:20:37;;;;;;;5.18;2.13;;;11.40;99.90;;;;;;5097615;28;20055;-89
2021/09/18 02:23:04;;;;;;;5.25;2.30;;;10.90;99.90;;;;;;5097316;28;20031;-88
2021/09/18 02:25:30;;;;;;;4.25;1.75;;;14.60;99.90;;;;;;5097166;28;20384;-89
2021/09/18 02:27:56;;;;;;;6.70;2.60;;;11.20;99.90;;;;;;5097029;28;20107;-89
2021/09/18 02:30:25;;;;;;;4.47;1.80;;;11.70;99.90;;;;;;5097046;28;20020;-89
2021/09/18 02:32:52;;;;;;;3.17;1.85;;;12.90;99.90;;;;;;5096342;28;20027;-89
2021/09/18 02:35:20;;;;;;;5.03;1.73;;;11.40;99.90;;;;;;5096664;28;20449;-90
2021/09/18 02:37:46;;;;;;;3.97;2.07;;;14.00;99.90;;;;;;5096508;28;20076;-89
2021/09/18 02:40:14;;;;;;;5.97;2.50;;;12.50;99.90;;;;;;5096383;28;20473;-89
2021/09/18 02:42:42;;;;;;;3.47;1.92;;;10.50;99.90;;;;;;5095796;28;20028;-88
2021/09/18 02:45:09;;;;;;;3.95;1.83;;;10.70;99.90;;;;;;5096795;28;20016;-88
2021/09/18 02:47:34;;;;;;;4.00;1.83;;;11.20;99.90;;;;;;5095927;28;20027;-89
2021/09/18 02:50:00;;;;;;;5.45;2.58;;;14.30;99.90;;;;;;5114376;28;20047;-88
2021/09/18 02:52:26;;;;;;;7.70;2.50;;;11.10;99.90;;;;;;5098207;28;20007;-88
2021/09/18 02:54:52;;;;;;;4.35;2.08;;;10.80;99.90;;;;;;5097562;28;20039;-88
2021/09/18 02:57:17;;;;;;;6.00;2.15;;;11.10;99.90;;;;;;5096989;28;20032;-88
2021/09/18 02:59:43;;;;;;;5.85;1.85;;;11.10;99.90;;;;;;5096990;28;20027;-88
2021/09/18 03:02:09;;;;;;;7.05;2.33;;;12.70;99.90;;;;;;5098214;28;20098;-88
2021/09/18 03:04:34;;;;;;;2.33;1.50;;;11.10;99.90;;;;;;5096019;28;20068;-87
2021/09/18 03:07:00;;;;;;;4.32;2.55;;;13.90;99.90;;;;;;5096252;28;20549;-88
2021/09/18 03:09:26;;;;;;;5.03;2.15;;;10.40;99.90;;;;;;5096268;28;20020;-88
2021/09/18 03:11:51;;;;;;;3.72;2.25;;;13.20;99.90;;;;;;5096606;28;20119;-88
2021/09/18 03:14:17;;;;;;;7.60;3.45;;;10.70;99.90;;;;;;5096261;28;20030;-89
2021/09/18 03:16:43;;;;;;;6.00;2.20;;;10.80;99.90;;;;;;5095742;28;20028;-89
2021/09/18 03:19:08;;;;;;;3.72;1.83;;;14.20;99.90;;;;;;5113620;28;20433;-88
2021/09/18 03:21:34;;;;;;;8.65;1.95;;;11.20;99.90;;;;;;5095720;28;20475;-88
2021/09/18 03:24:00;;;;;;;3.35;1.70;;;10.80;99.90;;;;;;5096008;28;20109;-89
2021/09/18 03:26:26;;;;;;;4.05;1.55;;;10.80;99.90;;;;;;5096861;28;20038;-88
2021/09/18 03:28:51;;;;;;;5.80;2.38;;;11.50;99.90;;;;;;5099325;28;20492;-89
2021/09/18 03:31:17;;;;;;;4.60;1.85;;;12.80;99.90;;;;;;5099803;28;20031;-89
2021/09/18 03:33:44;;;;;;;3.90;1.63;;;10.90;99.90;;;;;;5099668;28;20102;-89
2021/09/18 03:36:12;;;;;;;8.63;2.25;;;14.20;99.90;;;;;;5099344;28;20106;-90
2021/09/18 03:38:38;;;;;;;3.92;1.92;;;11.80;99.90;;;;;;5099059;28;20026;-90
2021/09/18 03:41:04;;;;;;;3.92;1.88;;;10.70;99.90;;;;;;5099874;28;20023;-87
2021/09/18 03:43:30;;;;;;;3.13;1.55;;;10.80;99.90;;;;;;5099452;28;20023;-87
2021/09/18 03:45:56;;;;;;;3.65;1.80;;;11.00;99.90;;;;;;5100344;28;20015;-87
2021/09/18 03:48:23;;;;;;;3.92;2.15;;;13.50;99.90;;;;;;5101273;28;20435;-89
2021/09/18 03:50:49;;;;;;;4.55;1.80;;;12.70;99.90;;;;;;5101105;28;20027;-88
2021/09/18 03:53:14;;;;;;;4.55;1.80;;;12.20;99.90;;;;;;5100022;28;20036;-89
2021/09/18 03:55:40;;;;;;;6.20;1.98;;;13.60;99.90;;;;;;5100953;28;20038;-89
2021/09/18 03:58:06;;;;;;;6.10;1.80;;;9.80;99.90;;;;;;5100701;28;20027;-88
2021/09/18 04:00:31;;;;;;;2.95;1.50;;;12.60;99.90;;;;;;5100684;28;20027;-88
2021/09/18 04:02:57;;;;;;;4.35;1.88;;;10.70;99.90;;;;;;5100001;28;20529;-89
2021/09/18 04:05:23;;;;;;;3.03;1.50;;;12.30;99.90;;;;;;5099765;28;20015;-88
2021/09/18 04:07:48;;;;;;;3.30;1.70;;;10.60;99.90;;;;;;5100809;28;20016;-88
2021/09/18 04:10:14;;;;;;;3.97;1.30;;;10.50;99.90;;;;;;5100519;28;20039;-89
2021/09/18 04:12:40;;;;;;;4.53;1.90;;;11.70;99.90;;;;;;5099858;28;20023;-90
2021/09/18 04:15:06;;;;;;;3.40;1.58;;;10.50;99.90;;;;;;5118076;28;20026;-89
2021/09/18 04:17:32;;;;;;;3.42;1.38;;;10.70;99.90;;;;;;5099245;28;20110;-90
2021/09/18 04:19:57;;;;;;;5.15;1.35;;;10.40;99.90;;;;;;5100111;28;20031;-88
2021/09/18 04:22:23;;;;;;;4.18;1.48;;;14.20;99.90;;;;;;5100168;28;20065;-89
2021/09/18 04:24:49;;;;;;;4.07;1.40;;;10.40;99.90;;;;;;5099636;28;20492;-90
2021/09/18 04:27:15;;;;;;;3.38;1.42;;;10.60;99.90;;;;;;5118455;28;20019;-89
2021/09/18 04:29:40;;;;;;;8.85;1.52;;;10.50;99.90;;;;;;5100235;28;20396;-89
2021/09/18 04:32:06;;;;;;;3.38;1.63;;;10.60;99.90;;;;;;5099830;28;20023;-89
2021/09/18 04:34:32;;;;;;;2.05;1.35;;;10.50;99.90;;;;;;5100365;28;20027;-89
2021/09/18 04:36:57;;;;;;;3.97;1.40;;;10.90;99.90;;;;;;5100188;28;20073;-89
2021/09/18 04:39:23;;;;;;;3.95;1.40;;;10.50;99.90;;;;;;5100610;28;20023;-89
2021/09/18 04:41:50;;;;;;;3.35;1.80;;;10.60;99.90;;;;;;5098989;28;20028;-89
2021/09/18 04:44:15;;;;;;;4.00;1.48;;;10.60;99.90;;;;;;5117738;28;20039;-90
2021/09/18 04:46:41;;;;;;;2.45;1.25;;;10.90;99.90;;;;;;5099436;28;20023;-89
2021/09/18 04:49:09;;;;;;;4.03;1.63;;;12.70;99.90;;;;;;5099241;28;20024;-88
2021/09/18 04:51:35;;;;;;;5.75;1.67;;;10.80;99.90;;;;;;5099675;28;20023;-89
2021/09/18 04:54:00;;;;;;;2.95;1.30;;;10.90;99.90;;;;;;5100549;28;20023;-88
2021/09/18 04:56:26;;;;;;;3.47;1.42;;;12.80;99.90;;;;;;5099630;28;20473;-89
2021/09/18 04:58:52;;;;;;;4.32;1.85;;;12.70;99.90;;;;;;5100373;28;20020;-90
2021/09/18 05:01:17;;;;;;;6.30;1.85;;;13.60;99.90;;;;;;5117856;28;20023;-88
2021/09/18 05:03:43;;;;;;;5.65;1.67;;;10.50;99.90;;;;;;5098743;28;20024;-88
2021/09/18 05:06:09;;;;;;;2.17;1.10;;;11.20;99.90;;;;;;5099661;28;20012;-89
2021/09/18 05:08:34;;;;;;;3.25;1.42;;;11.40;99.90;;;;;;5117343;28;20019;-89
2021/09/18 05:11:00;;;;;;;2.60;1.52;;;10.60;99.90;;;;;;5117433;28;20422;-89
2021/09/18 05:13:25;;;;;;;2.65;1.15;;;10.70;99.90;;;;;;5099167;28;20024;-89
2021/09/18 05:15:51;;;;;;;2.70;1.00;;;12.10;99.90;;;;;;5098446;28;20065;-89
2021/09/18 05:18:16;;;;;;;2.10;1.10;;;10.40;99.90;;;;;;5098829;28;20051;-89
2021/09/18 05:20:42;;;;;;;2.47;1.00;;;10.30;99.90;;;;;;5117017;28;20023;-89
2021/09/18 05:23:07;;;;;;;3.33;1.55;;;13.30;99.90;;;;;;5098370;28;20126;-89
2021/09/18 05:25:33;;;;;;;4.45;1.50;;;9.90;99.90;;;;;;5098785;28;20068;-89
2021/09/18 05:27:59;;;;;;;3.22;1.30;;;13.40;99.90;;;;;;5098635;28;20561;-88
2021/09/18 05:30:24;;;;;;;3.70;1.15;;;10.00;99.90;;;;;;5098536;28;20389;-88
2021/09/18 05:32:50;;;;;;;2.70;1.05;;;13.80;99.90;;;;;;5098657;28;20023;-89
2021/09/18 05:35:15;;;;;;;6.32;1.58;;;13.30;99.90;;;;;;5099280;28;20027;-89
2021/09/18 05:37:41;;;;;;;3.55;1.25;;;14.30;99.90;;;;;;5098103;28;20020;-88
2021/09/18 05:40:07;;;;;;;3.40;1.38;;;10.70;99.90;;;;;;5117239;28;20528;-89
2021/09/18 05:42:33;;;;;;;2.58;1.10;;;10.70;99.90;;;;;;5098511;28;20382;-90
2021/09/18 05:44:58;;;;;;;3.38;1.58;;;11.00;99.90;;;;;;5098363;28;20031;-90
2021/09/18 05:47:24;;;;;;;5.65;1.13;;;12.40;99.90;;;;;;5098497;28;20027;-89
2021/09/18 05:49:50;;;;;;;2.55;1.30;;;10.90;99.90;;;;;;5116073;28;20015;-88
2021/09/18 05:52:15;;;;;;;4.38;1.80;;;10.60;99.90;;;;;;5097119;28;20442;-89
2021/09/18 05:54:41;;;;;;;5.32;1.70;;;10.90;99.90;;;;;;5097625;28;20067;-89
2021/09/18 05:57:06;;;;;;;6.88;1.65;;;13.60;99.90;;;;;;5097507;28;20028;-89
2021/09/18 05:59:32;;;;;;;5.82;1.73;;;11.00;99.90;;;;;;5116486;28;20023;-89
2021/09/18 06:01:58;;;;;;;4.82;2.10;;;10.80;99.90;;;;;;5116457;28;20376;-89
2021/09/18 06:04:23;;;;;;;7.68;3.72;;;11.10;99.90;;;;;;5097652;28;20110;-89
2021/09/18 06:06:49;;;;;;;6.97;3.17;;;10.60;99.90;;;;;;5115659;28;20493;-89
2021/09/18 06:09:15;;;;;;;8.07;2.97;;;11.30;99.90;;;;;;5116025;28;20023;-89
2021/09/18 06:11:40;;;;;;;10.80;4.07;;;11.40;99.90;;;;;;5115574;28;20034;-89
2021/09/18 06:14:06;;;;;;;14.35;4.53;;;14.40;99.90;;;;;;5115867;28;20016;-89
2021/09/18 06:16:31;;;;;;;10.65;4.22;;;11.60;99.90;;;;;;5115379;28;20063;-89
2021/09/18 06:18:57;;;;;;;10.52;3.90;;;11.20;99.90;;;;;;5097086;28;20031;-89
2021/09/18 06:21:23;;;;;;;13.70;5.18;;;11.30;99.90;;;;;;5097405;28;20444;-88
2021/09/18 06:23:48;;;;;;;14.65;6.13;;;12.00;99.90;;;;;;5097381;28;20076;-88
2021/09/18 06:26:16;;;;;;;15.82;6.00;;;12.10;99.90;;;;;;5097091;28;20108;-88
2021/09/18 06:28:42;;;;;;;12.73;6.32;;;15.20;99.90;;;;;;5096986;28;20035;-88
2021/09/18 06:31:07;;;;;;;18.90;6.88;;;12.40;99.90;;;;;;5096917;28;20030;-89
2021/09/18 06:33:33;;;;;;;14.35;5.85;;;13.80;99.90;;;;;;5096307;28;20035;-89
2021/09/18 06:36:00;;;;;;;15.00;6.72;;;15.00;99.90;;;;;;5096461;28;20031;-89
2021/09/18 06:38:25;;;;;;;13.75;6.07;;;14.60;99.90;;;;;;5096194;28;20031;-89
2021/09/18 06:40:53;;;;;;;14.80;6.15;;;12.60;99.90;;;;;;5096588;28;20499;-89
2021/09/18 06:43:22;;;;;;;15.47;6.77;;;16.80;99.90;;;;;;5114013;28;20115;-88
2021/09/18 06:45:48;;;;;;;;;;;14.10;99.90;;;;;;5097066;28;20019;-89
2021/09/18 06:48:14;;;;;;;13.82;6.28;;;13.20;99.90;;;;;;5096672;28;19952;-90
2021/09/18 06:50:40;;;;;;;16.88;7.07;;;16.50;99.90;;;;;;5096453;28;20012;-89
2021/09/18 06:53:07;;;;;;;19.08;6.60;;;16.50;99.90;;;;;;5114688;28;20019;-88
2021/09/18 06:55:33;;;;;;;13.48;6.38;;;13.70;99.90;;;;;;5096286;28;20039;-87
2021/09/18 06:58:00;;;;;;;14.05;6.63;;;14.20;99.90;;;;;;5114340;28;20023;-87
2021/09/18 07:00:26;;;;;;;14.40;6.90;;;16.60;99.90;;;;;;5096016;28;20465;-87
2021/09/18 07:02:52;;;;;;;16.63;6.93;;;16.30;99.90;;;;;;5099422;28;20373;-87
2021/09/18 07:05:18;;;;;;;14.40;6.47;;;13.20;99.90;;;;;;5100218;28;20034;-87
2021/09/18 07:07:45;;;;;;;13.18;6.03;;;14.10;99.90;;;;;;5100477;28;20016;-87
2021/09/18 07:10:11;;;;;;;14.73;6.28;;;14.00;99.90;;;;;;5100113;28;20453;-87
2021/09/18 07:12:37;;;;;;;11.70;5.85;;;14.20;99.90;;;;;;5099912;28;20047;-87
2021/09/18 07:15:03;;;;;;;16.75;6.15;;;14.50;99.90;;;;;;5118695;28;20362;-86
2021/09/18 07:17:29;;;;;;;16.08;6.82;;;14.40;99.90;;;;;;5101343;28;20118;-85
2021/09/18 07:19:57;;;;;;;13.40;6.82;;;14.90;99.90;;;;;;5101910;28;20111;-86
2021/09/18 07:22:24;;;;;;;15.07;7.03;;;14.00;99.90;;;;;;5100641;28;20023;-86
2021/09/18 07:24:49;;;;;;;15.77;6.88;;;14.70;99.90;;;;;;5100790;28;20506;-86
2021/09/18 07:27:17;;;;;;;11.30;6.03;;;16.30;99.90;;;;;;5099929;28;20050;-86
2021/09/18 07:29:43;;;;;;;13.27;6.20;;;14.70;99.90;;;;;;5100217;28;20477;-86
2021/09/18 07:32:11;;;;;;;13.65;6.00;;;14.90;99.90;;;;;;5118996;28;20411;-86
2021/09/18 07:34:37;;;;;;;12.38;6.10;;;15.40;99.90;;;;;;5118463;28;20016;-87
2021/09/18 07:37:03;;;;;;;14.32;6.97;;;15.50;99.90;;;;;;5101033;28;20091;-86
2021/09/18 07:39:29;;;;;;;16.83;8.02;;;15.80;99.90;;;;;;5100386;28;20122;-86
2021/09/18 07:41:55;;;;;;;15.57;7.35;;;14.90;99.90;;;;;;5099815;28;20054;-88
2021/09/18 07:44:21;;;;;;;15.88;7.72;;;15.10;99.90;;;;;;5099042;28;20123;-87
2021/09/18 07:46:47;;;;;;;15.98;7.07;;;17.70;99.90;;;;;;5099357;28;20106;-88
2021/09/18 07:49:12;;;;;;;12.60;6.60;;;17.50;99.90;;;;;;5117450;28;20130;-88
2021/09/18 07:51:38;;;;;;;15.88;6.90;;;15.90;99.90;;;;;;5098968;28;20024;-88
2021/09/18 07:54:04;;;;;;;13.25;6.60;;;14.10;99.90;;;;;;5099000;28;20019;-88
2021/09/18 07:56:30;;;;;;;12.02;6.38;;;18.50;99.90;;;;;;5099019;28;20072;-88
2021/09/18 07:58:57;;;;;;;15.20;7.45;;;16.00;99.90;;;;;;5099725;28;20381;-89
2021/09/18 08:01:24;;;;;;;14.38;6.80;;;16.00;99.90;;;;;;5099578;28;20030;-88
2021/09/18 08:03:51;;;;;;;15.18;7.07;;;17.00;99.90;;;;;;5099477;28;20096;-87
2021/09/18 08:06:17;;;;;;;14.98;7.28;;;16.40;99.90;;;;;;5098973;28;20064;-87
2021/09/18 08:08:42;;;;;;;12.07;6.25;;;17.60;99.90;;;;;;5098014;28;20477;-87
2021/09/18 08:11:08;;;;;;;16.75;7.30;;;16.80;99.90;;;;;;5098723;28;20032;-87
2021/09/18 08:13:34;;;;;;;16.88;6.82;;;16.70;99.90;;;;;;5099368;28;20027;-88
2021/09/18 08:15:59;;;;;;;15.80;6.40;;;19.90;99.90;;;;;;5099245;28;20023;-88
2021/09/18 08:18:25;;;;;;;14.43;6.47;;;17.10;99.90;;;;;;5117346;28;20431;-87
2021/09/18 08:20:51;;;;;;;13.60;7.25;;;17.00;99.90;;;;;;5099565;28;20031;-87
2021/09/18 08:23:16;;;;;;;16.42;6.55;;;17.20;99.90;;;;;;5099227;28;20020;-87
2021/09/18 08:25:42;;;;;;;15.15;6.15;;;17.30;99.90;;;;;;5098557;28;20020;-88
2021/09/18 08:28:07;;;;;;;14.65;6.38;;;19.20;99.90;;;;;;5117580;28;20480;-88
2021/09/18 08:30:35;;;;;;;16.05;6.78;;;18.20;99.90;;;;;;5100789;28;20369;-87
2021/09/18 08:33:02;;;;;;;14.10;6.45;;;17.90;99.90;;;;;;5100168;28;20008;-87
2021/09/18 08:35:28;;;;;;;13.43;5.57;;;17.80;99.90;;;;;;5111023;28;20012;-87
2021/09/18 08:37:53;;;;;;;12.98;5.72;;;18.20;99.90;;;;;;5119618;27;20011;-88
2021/09/18 08:40:19;;;;;;;13.65;6.35;;;21.00;99.90;;;;;;5100009;28;20034;-87
2021/09/18 08:42:45;;;;;;;12.82;5.50;;;18.60;99.90;;;;;;5116817;28;20016;-88
2021/09/18 08:45:13;;;;;;;10.88;5.25;;;18.40;99.90;;;;;;5098579;28;20020;-87
2021/09/18 08:47:41;;;;;;;11.98;5.25;;;20.20;99.90;;;;;;5117198;28;20016;-87
2021/09/18 08:50:11;;;;;;;10.25;4.45;;;19.40;99.90;;;;;;5099340;28;20025;-88
2021/09/18 08:52:37;;;;;;;10.90;5.35;;;18.30;99.90;;;;;;5097770;28;20020;-89
2021/09/18 08:55:03;;;;;;;10.20;5.40;;;19.30;99.90;;;;;;5098465;28;20384;-89
2021/09/18 08:57:28;;;;;;;9.68;5.10;;;18.50;99.90;;;;;;5097735;28;20092;-89
2021/09/18 08:59:54;;;;;;;9.15;4.63;;;19.70;99.90;;;;;;5098982;28;20473;-89
2021/09/18 09:02:23;;;;;;;10.30;4.95;;;18.70;99.90;;;;;;5097652;28;20024;-89
2021/09/18 09:05:04;;;;;;;8.07;3.85;;;22.00;99.90;;;;;;5097810;28;20051;-89
2021/09/18 09:07:30;;;;;;;8.80;3.80;;;18.90;99.90;;;;;;5097826;28;20020;-89
2021/09/18 09:09:59;;;;;;;7.38;3.60;;;19.60;99.90;;;;;;5116046;28;20072;-88
2021/09/18 09:12:32;;;;;;;9.18;3.17;;;20.90;99.90;;;;;;5097629;28;20472;-89
2021/09/18 09:15:00;;;;;;;5.45;2.00;;;21.90;99.90;;;;;;5116089;28;20076;-88
2021/09/18 09:17:28;;;;;;;3.35;1.92;;;21.90;99.90;;;;;;5097910;28;20028;-88
2021/09/18 09:19:54;;;;;;;;;;;21.50;99.90;;;;;;5097933;28;20027;-89
2021/09/18 09:22:47;;;;;;;5.22;2.10;;;19.60;99.90;;;;;;5097794;28;19911;-88
2021/09/18 09:25:36;;;;;;;3.40;1.25;;;19.50;99.90;;;;;;5096586;28;20032;-89
2021/09/18 09:28:22;;;;;;;3.97;1.65;;;22.80;99.90;;;;;;5115554;28;20028;-89
2021/09/18 09:30:48;;;;;;;3.95;1.10;;;23.20;99.90;;;;;;5097831;28;20019;-88
2021/09/18 09:33:14;;;;;;;0.70;0.35;;;20.30;99.90;;;;;;5097848;28;20024;-87
2021/09/18 09:35:42;;;;;;;1.58;0.40;;;20.80;99.90;;;;;;5097742;28;20480;-88
2021/09/18 09:38:08;;;;;;;2.88;1.33;;;20.70;99.90;;;;;;5096739;28;20450;-88
2021/09/18 09:40:39;;;;;;;1.60;0.32;;;23.40;99.90;;;;;;5076878;28;20384;-88
2021/09/18 09:43:07;;;;;;;1.52;0.40;;;21.70;99.90;;;;;;5089051;28;20036;-88
2021/09/18 09:45:32;;;;;;;1.95;0.13;;;22.70;99.90;;;;;;5097686;28;20031;-88
2021/09/18 09:48:15;;;;;;;0.57;0.10;;;20.70;99.90;;;;;;5096484;28;20020;-87
2021/09/18 09:50:54;;;;;;;0.68;0.00;;;20.90;99.90;;;;;;5097484;28;20019;-91
2021/09/18 09:53:29;;;;;;;0.70;0.00;;;19.30;99.90;;;;;;5097686;28;20015;-90
2021/09/18 09:55:55;;;;;;;1.08;0.47;;;21.70;99.90;;;;;;5097309;28;20031;-89
2021/09/18 09:58:21;;;;;;;0.30;0.30;;;23.60;99.90;;;;;;5097707;28;20481;-90
2021/09/18 10:00:51;;;;;;;1.45;0.08;;;24.10;99.90;;;;;;5097303;28;20020;-90
2021/09/18 10:03:20;;;;;;;0.80;0.20;;;19.60;99.90;;;;;;5097133;28;20032;-90
2021/09/18 10:05:47;;;;;;;1.67;0.10;;;21.20;99.90;;;;;;5097433;28;20054;-91
2021/09/18 10:08:13;;;;;;;0.10;0.00;;;23.60;99.90;;;;;;5097167;28;20019;-91
2021/09/18 10:10:40;;;;;;;1.55;0.00;;;20.50;99.90;;;;;;5115038;28;20020;-90
2021/09/18 10:13:08;;;;;;;0.22;0.00;;;22.10;99.90;;;;;;5097262;28;20391;-90
2021/09/18 10:15:34;;;;;;;1.02;0.10;;;19.80;99.90;;;;;;5115573;28;20012;-89
2021/09/18 10:18:02;;;;;;;2.00;0.20;;;25.10;99.90;;;;;;5097592;28;20031;-90
2021/09/18 10:25:46;;;;;;;0.95;0.30;;;22.20;99.20;;;;;;5116287;28;20503;-91
2021/09/18 10:28:22;;;;;;;0.17;0.00;;;22.30;98.40;;;;;;5097163;28;20023;-90
2021/09/18 10:30:52;;;;;;;0.65;0.00;;;22.30;98.90;;;;;;5098237;28;20450;-89
2021/09/18 10:33:29;;;;;;;0.10;0.00;;;23.00;99.90;;;;;;5097054;28;20023;-88
2021/09/18 10:35:57;;;;;;;1.08;0.00;;;22.60;97.20;;;;;;5114769;28;20023;-89
2021/09/18 10:38:24;;;;;;;;;;;22.70;97.40;;;;;;5097297;28;20043;-89
2021/09/18 10:41:08;;;;;;;0.25;0.00;;;23.00;97.60;;;;;;5114981;28;19923;-89
2021/09/18 10:43:40;;;;;;;0.20;0.00;;;22.90;96.80;;;;;;5096799;28;20298;-89
2021/09/18 10:46:08;;;;;;;0.47;0.00;;;23.10;95.70;;;;;;5115427;28;20099;-90
2021/09/18 10:48:45;;;;;;;0.17;0.00;;;23.20;96.10;;;;;;5097526;28;20030;-89
2021/09/18 10:51:34;;;;;;;1.65;0.00;;;26.60;96.10;;;;;;5115366;28;20035;-86
2021/09/18 10:54:22;;;;;;;0.80;0.00;;;23.40;94.20;;;;;;5083734;28;20110;-88
2021/09/18 10:57:06;;;;;;;0.40;0.00;;;23.40;95.20;;;;;;5096858;28;20485;-88
2021/09/18 10:59:45;;;;;;;0.65;0.00;;;24.00;94.50;;;;;;5115290;28;20024;-89
2021/09/18 11:02:30;;;;;;;4.15;0.10;;;23.70;93.50;;;;;;5088082;28;20032;-88
2021/09/18 11:04:56;;;;;;;0.30;0.00;;;24.00;95.30;;;;;;5092303;28;20036;-89
2021/09/18 11:07:45;;;;;;;0.82;0.35;;;25.10;93.10;;;;;;5096777;28;20028;-90
2021/09/18 11:10:45;;;;;;;0.55;0.20;;;23.90;90.00;;;;;;5115228;28;20063;-89
2021/09/18 11:13:11;;;;;;;0.35;0.05;;;24.00;90.60;;;;;;5084977;28;20081;-89
2021/09/18 11:15:42;;;;;;;0.35;0.03;;;26.80;90.70;;;;;;5097322;28;20055;-89
2021/09/18 11:18:47;;;;;;;0.10;0.10;;;24.80;87.20;;;;;;5097025;28;20427;-88
2021/09/18 11:21:28;;;;;;;0.20;0.20;;;24.70;82.40;;;;;;5096827;28;20038;-89
2021/09/18 11:23:58;;;;;;;0.10;0.00;;;24.40;82.10;;;;;;5097856;28;20019;-88
2021/09/18 11:26:51;;;;;;;0.88;0.03;;;25.40;82.10;;;;;;5099825;28;20031;-88
2021/09/18 11:29:29;;;;;;;0.73;0.00;;;24.20;81.10;;;;;;5096604;28;20087;-89
2021/09/18 11:32:18;;;;;;;1.55;0.00;;;24.30;82.20;;;;;;5096914;28;20024;-89
2021/09/18 11:34:55;;;;;;;1.77;0.00;;;24.70;80.00;;;;;;5096806;28;20027;-88
2021/09/18 11:37:31;;;;;;;0.68;0.17;;;25.00;78.90;;;;;;5114695;28;20126;-86
2021/09/18 11:40:02;;;;;;;1.17;0.00;;;25.60;75.60;;;;;;5096227;28;20089;-87
2021/09/18 11:42:44;;;;;;;2.33;0.30;;;23.40;75.10;;;;;;5096070;28;20058;-90
2021/09/18 11:45:19;;;;;;;1.38;0.00;;;25.50;74.00;;;;;;5089351;28;20032;-90
2021/09/18 11:47:58;;;;;;;2.83;0.00;;;25.70;71.50;;;;;;5076789;28;20405;-89
2021/09/18 11:50:33;;;;;;;3.67;0.10;;;25.90;70.70;;;;;;5087562;28;20039;-88
2021/09/18 11:53:01;;;;;;;0.20;0.00;;;25.80;70.50;;;;;;5099629;28;20365;-89
2021/09/18 11:55:30;;;;;;;0.20;0.00;;;26.40;67.80;;;;;;5118168;28;20532;-89
2021/09/18 11:58:17;;;;;;;;;;;;;;;;;;;;;
2021/09/18 12:00:51;;;;;;;2.25;0.00;;;26.50;67.20;;;;;;5118356;28;20038;-89
2021/09/18 12:03:28;;;;;;;0.38;0.00;;;26.80;67.10;;;;;;5100029;28;20118;-89
2021/09/18 12:06:12;;;;;;;0.80;0.10;;;27.60;65.40;;;;;;5100679;28;20380;-89
2021/09/18 12:08:43;;;;;;;0.65;0.00;;;27.40;66.20;;;;;;5078458;28;20032;-89
2021/09/18 12:11:08;;;;;;;1.58;0.00;;;27.30;65.70;;;;;;5112696;28;20036;-90
2021/09/18 12:13:47;;;;;;;2.22;0.00;;;27.10;66.00;;;;;;5099344;28;20023;-89
2021/09/18 12:16:21;;;;;;;0.00;0.00;;;27.60;65.30;;;;;;5098963;28;20038;-90
2021/09/18 12:19:00;;;;;;;0.10;0.00;;;27.70;63.50;;;;;;5098435;28;20030;-89
2021/09/18 12:21:33;;;;;;;0.20;0.00;;;27.90;62.50;;;;;;5099352;28;20049;-89
2021/09/18 12:24:11;;;;;;;0.68;0.15;;;27.60;62.90;;;;;;5098707;28;20042;-89
2021/09/18 12:26:48;;;;;;;1.98;0.10;;;25.90;60.40;;;;;;5099861;28;20415;-89
2021/09/18 12:29:20;;;;;;;1.65;0.00;;;28.20;61.10;;;;;;5099470;28;20115;-89
2021/09/18 12:32:03;;;;;;;1.77;0.00;;;28.00;59.90;;;;;;5099114;28;20107;-89
2021/09/18 12:34:38;;;;;;;0.80;0.00;;;28.10;60.80;;;;;;5116746;28;20031;-89
2021/09/18 12:37:17;;;;;;;0.10;0.00;;;27.80;61.80;;;;;;5098507;28;20020;-88
2021/09/18 12:39:43;;;;;;;0.63;0.00;;;28.20;59.70;;;;;;5114074;28;20119;-88
2021/09/18 12:42:19;;;;;;;0.77;0.30;;;27.90;60.30;;;;;;5099600;28;20039;-89
2021/09/18 12:44:46;;;;;;;0.10;0.00;;;27.60;61.60;;;;;;5099629;28;20051;-88
2021/09/18 12:47:24;;;;;;;1.35;0.00;;;27.50;58.40;;;;;;5099634;28;20030;-88
2021/09/18 12:49:53;;;;;;;1.17;0.00;;;27.50;59.10;;;;;;5117806;28;20076;-87
2021/09/18 12:52:29;;;;;;;;;;;27.00;60.30;;;;;;5099935;28;20446;-87
2021/09/18 12:55:02;;;;;;;2.08;0.00;;;29.70;61.30;;;;;;5099315;28;19947;-88
2021/09/18 12:57:32;;;;;;;0.30;0.00;;;27.40;59.90;;;;;;5098496;28;20063;-89
2021/09/18 13:00:27;;;;;;;0.30;0.20;;;27.70;60.30;;;;;;5097930;28;20434;-90